Terminal Aerodrome Forecast
Issued by NWS Austin/San Antonio, TX

Home | Current Version | Previous Version | Text Only | Print | Product List | Glossary On
Versions: 1 2 3 4 5 6 7 8 9 10 11 12 13 14 15 16 17
103
FTUS44 KEWX 022003 AAB
TAFAUS
TAF AMD
KAUS 022003Z 0220/0324 06009KT P6SM VCSH SCT080 BKN200
     FM030100 04008KT 4SM SHRA BR OVC015=

USA.gov is the U.S. government's official web portal to all federal, state and local government web resources and services.